sensor_id;sensor_type;location;lat;lon;timestamp;P1;durP1;ratioP1;P2;durP2;ratioP2
46411;SDS011;32113;42.012;24.870;2022-11-15T00:00:49;11.60;;;9.45;;
46411;SDS011;32113;42.012;24.870;2022-11-15T00:03:16;12.88;;;9.15;;
46411;SDS011;32113;42.012;24.870;2022-11-15T00:05:43;18.10;;;9.77;;
46411;SDS011;32113;42.012;24.870;2022-11-15T00:08:09;11.93;;;8.57;;
46411;SDS011;32113;42.012;24.870;2022-11-15T00:10:35;11.80;;;9.48;;
46411;SDS011;32113;42.012;24.870;2022-11-15T00:13:07;12.68;;;8.80;;
46411;SDS011;32113;42.012;24.870;2022-11-15T00:15:37;12.30;;;9.07;;
46411;SDS011;32113;42.012;24.870;2022-11-15T00:18:04;12.90;;;8.95;;
46411;SDS011;32113;42.012;24.870;2022-11-15T00:20:31;14.70;;;9.88;;
46411;SDS011;32113;42.012;24.870;2022-11-15T00:25:24;12.18;;;8.05;;
46411;SDS011;32113;42.012;24.870;2022-11-15T00:27:49;10.82;;;8.82;;
46411;SDS011;32113;42.012;24.870;2022-11-15T00:30:16;15.18;;;9.35;;
46411;SDS011;32113;42.012;24.870;2022-11-15T00:32:42;12.85;;;9.00;;
46411;SDS011;32113;42.012;24.870;2022-11-15T00:35:07;14.68;;;9.63;;
46411;SDS011;32113;42.012;24.870;2022-11-15T00:37:33;13.48;;;9.45;;
46411;SDS011;32113;42.012;24.870;2022-11-15T00:39:58;10.98;;;8.35;;
46411;SDS011;32113;42.012;24.870;2022-11-15T00:42:24;13.45;;;9.20;;
46411;SDS011;32113;42.012;24.870;2022-11-15T00:44:49;11.93;;;8.57;;
46411;SDS011;32113;42.012;24.870;2022-11-15T00:47:14;12.77;;;8.52;;
46411;SDS011;32113;42.012;24.870;2022-11-15T00:49:40;12.73;;;8.98;;
46411;SDS011;32113;42.012;24.870;2022-11-15T00:52:06;11.40;;;8.27;;
46411;SDS011;32113;42.012;24.870;2022-11-15T00:54:32;11.40;;;8.73;;
46411;SDS011;32113;42.012;24.870;2022-11-15T00:56:57;12.40;;;8.95;;
46411;SDS011;32113;42.012;24.870;2022-11-15T00:59:23;10.45;;;7.97;;
46411;SDS011;32113;42.012;24.870;2022-11-15T01:01:48;11.10;;;8.80;;
46411;SDS011;32113;42.012;24.870;2022-11-15T01:04:14;10.90;;;7.97;;
46411;SDS011;32113;42.012;24.870;2022-11-15T01:06:39;12.98;;;8.27;;
46411;SDS011;32113;42.012;24.870;2022-11-15T01:09:05;13.23;;;8.77;;
46411;SDS011;32113;42.012;24.870;2022-11-15T01:11:30;11.38;;;8.23;;
46411;SDS011;32113;42.012;24.870;2022-11-15T01:13:55;9.98;;;8.20;;
46411;SDS011;32113;42.012;24.870;2022-11-15T01:16:21;11.65;;;8.77;;
46411;SDS011;32113;42.012;24.870;2022-11-15T01:18:46;11.48;;;8.75;;
46411;SDS011;32113;42.012;24.870;2022-11-15T01:21:16;13.65;;;9.05;;
46411;SDS011;32113;42.012;24.870;2022-11-15T01:23:42;12.15;;;9.40;;
46411;SDS011;32113;42.012;24.870;2022-11-15T01:26:09;15.80;;;7.90;;
46411;SDS011;32113;42.012;24.870;2022-11-15T01:28:37;11.10;;;7.47;;
46411;SDS011;32113;42.012;24.870;2022-11-15T01:31:05;11.07;;;7.90;;
46411;SDS011;32113;42.012;24.870;2022-11-15T01:33:34;13.18;;;8.98;;
46411;SDS011;32113;42.012;24.870;2022-11-15T01:36:09;11.98;;;8.45;;
46411;SDS011;32113;42.012;24.870;2022-11-15T01:38:36;12.15;;;8.00;;
46411;SDS011;32113;42.012;24.870;2022-11-15T01:41:02;9.85;;;7.70;;
46411;SDS011;32113;42.012;24.870;2022-11-15T01:43:29;10.55;;;7.90;;
46411;SDS011;32113;42.012;24.870;2022-11-15T01:46:01;11.85;;;7.85;;
46411;SDS011;32113;42.012;24.870;2022-11-15T01:48:34;12.90;;;8.13;;
46411;SDS011;32113;42.012;24.870;2022-11-15T01:51:01;11.93;;;8.57;;
46411;SDS011;32113;42.012;24.870;2022-11-15T01:53:33;12.30;;;8.80;;
46411;SDS011;32113;42.012;24.870;2022-11-15T01:56:02;10.77;;;8.10;;
46411;SDS011;32113;42.012;24.870;2022-11-15T01:58:29;13.25;;;7.90;;
46411;SDS011;32113;42.012;24.870;2022-11-15T02:00:55;12.13;;;8.52;;
46411;SDS011;32113;42.012;24.870;2022-11-15T02:03:21;12.77;;;8.23;;
46411;SDS011;32113;42.012;24.870;2022-11-15T02:05:52;11.20;;;7.50;;
46411;SDS011;32113;42.012;24.870;2022-11-15T02:08:18;11.82;;;7.25;;
46411;SDS011;32113;42.012;24.870;2022-11-15T02:10:46;11.02;;;8.30;;
46411;SDS011;32113;42.012;24.870;2022-11-15T02:13:13;11.55;;;7.88;;
46411;SDS011;32113;42.012;24.870;2022-11-15T02:15:42;11.55;;;8.02;;
46411;SDS011;32113;42.012;24.870;2022-11-15T02:24:01;10.63;;;7.93;;
46411;SDS011;32113;42.012;24.870;2022-11-15T02:29:20;10.57;;;8.10;;
46411;SDS011;32113;42.012;24.870;2022-11-15T02:31:55;12.98;;;7.97;;
46411;SDS011;32113;42.012;24.870;2022-11-15T02:34:35;10.88;;;8.27;;
46411;SDS011;32113;42.012;24.870;2022-11-15T02:37:29;10.18;;;7.65;;
46411;SDS011;32113;42.012;24.870;2022-11-15T02:40:22;12.77;;;7.93;;
46411;SDS011;32113;42.012;24.870;2022-11-15T02:43:10;10.15;;;7.38;;
46411;SDS011;32113;42.012;24.870;2022-11-15T02:46:01;11.40;;;8.13;;
46411;SDS011;32113;42.012;24.870;2022-11-15T02:48:34;11.35;;;7.78;;
46411;SDS011;32113;42.012;24.870;2022-11-15T02:51:00;10.02;;;7.72;;
46411;SDS011;32113;42.012;24.870;2022-11-15T02:53:27;10.73;;;7.95;;
46411;SDS011;32113;42.012;24.870;2022-11-15T02:55:53;12.23;;;7.85;;
46411;SDS011;32113;42.012;24.870;2022-11-15T03:06:40;9.77;;;7.43;;
46411;SDS011;32113;42.012;24.870;2022-11-15T03:11:52;9.40;;;7.43;;
46411;SDS011;32113;42.012;24.870;2022-11-15T03:14:32;11.85;;;7.32;;
46411;SDS011;32113;42.012;24.870;2022-11-15T03:19:56;10.57;;;7.47;;
46411;SDS011;32113;42.012;24.870;2022-11-15T03:24:56;9.57;;;7.13;;
46411;SDS011;32113;42.012;24.870;2022-11-15T03:27:25;8.75;;;6.55;;
46411;SDS011;32113;42.012;24.870;2022-11-15T03:30:04;9.52;;;6.95;;
46411;SDS011;32113;42.012;24.870;2022-11-15T03:32:32;10.02;;;6.95;;
46411;SDS011;32113;42.012;24.870;2022-11-15T03:37:44;9.10;;;6.40;;
46411;SDS011;32113;42.012;24.870;2022-11-15T03:40:10;9.57;;;7.03;;
46411;SDS011;32113;42.012;24.870;2022-11-15T03:42:38;8.85;;;6.75;;
46411;SDS011;32113;42.012;24.870;2022-11-15T03:45:16;10.38;;;6.70;;
46411;SDS011;32113;42.012;24.870;2022-11-15T03:47:56;9.95;;;7.00;;
46411;SDS011;32113;42.012;24.870;2022-11-15T03:50:26;9.35;;;6.63;;
46411;SDS011;32113;42.012;24.870;2022-11-15T03:52:53;10.70;;;7.22;;
46411;SDS011;32113;42.012;24.870;2022-11-15T03:55:20;9.95;;;7.10;;
46411;SDS011;32113;42.012;24.870;2022-11-15T03:57:46;10.05;;;6.68;;
46411;SDS011;32113;42.012;24.870;2022-11-15T04:02:39;9.23;;;6.68;;
46411;SDS011;32113;42.012;24.870;2022-11-15T04:05:05;9.98;;;6.40;;
46411;SDS011;32113;42.012;24.870;2022-11-15T04:07:30;9.63;;;6.88;;
46411;SDS011;32113;42.012;24.870;2022-11-15T04:09:56;8.52;;;6.63;;
46411;SDS011;32113;42.012;24.870;2022-11-15T04:12:27;11.85;;;6.88;;
46411;SDS011;32113;42.012;24.870;2022-11-15T04:15:07;8.80;;;6.38;;
46411;SDS011;32113;42.012;24.870;2022-11-15T04:22:53;11.15;;;6.47;;
46411;SDS011;32113;42.012;24.870;2022-11-15T04:25:37;10.30;;;6.82;;
46411;SDS011;32113;42.012;24.870;2022-11-15T04:28:03;9.63;;;6.43;;
46411;SDS011;32113;42.012;24.870;2022-11-15T04:30:28;10.18;;;6.68;;
46411;SDS011;32113;42.012;24.870;2022-11-15T04:32:54;9.80;;;6.57;;
46411;SDS011;32113;42.012;24.870;2022-11-15T04:35:19;10.18;;;7.05;;
46411;SDS011;32113;42.012;24.870;2022-11-15T04:37:45;9.30;;;6.50;;
46411;SDS011;32113;42.012;24.870;2022-11-15T04:40:10;8.82;;;6.35;;
46411;SDS011;32113;42.012;24.870;2022-11-15T04:42:36;8.05;;;6.20;;
46411;SDS011;32113;42.012;24.870;2022-11-15T04:45:01;8.30;;;6.50;;
46411;SDS011;32113;42.012;24.870;2022-11-15T04:47:26;8.10;;;6.18;;
46411;SDS011;32113;42.012;24.870;2022-11-15T04:49:53;8.38;;;5.97;;
46411;SDS011;32113;42.012;24.870;2022-11-15T04:52:18;7.95;;;6.03;;
46411;SDS011;32113;42.012;24.870;2022-11-15T04:54:43;9.13;;;6.53;;
46411;SDS011;32113;42.012;24.870;2022-11-15T04:57:09;8.88;;;5.80;;
46411;SDS011;32113;42.012;24.870;2022-11-15T04:59:35;9.68;;;7.38;;
46411;SDS011;32113;42.012;24.870;2022-11-15T05:02:00;10.18;;;6.07;;
46411;SDS011;32113;42.012;24.870;2022-11-15T05:04:25;11.82;;;6.15;;
46411;SDS011;32113;42.012;24.870;2022-11-15T05:06:51;9.85;;;7.22;;
46411;SDS011;32113;42.012;24.870;2022-11-15T05:09:17;10.02;;;6.90;;
46411;SDS011;32113;42.012;24.870;2022-11-15T05:11:44;8.27;;;5.85;;
46411;SDS011;32113;42.012;24.870;2022-11-15T05:14:10;7.45;;;6.20;;
46411;SDS011;32113;42.012;24.870;2022-11-15T05:16:36;9.35;;;6.75;;
46411;SDS011;32113;42.012;24.870;2022-11-15T05:19:02;11.52;;;6.22;;
46411;SDS011;32113;42.012;24.870;2022-11-15T05:21:27;9.45;;;6.18;;
46411;SDS011;32113;42.012;24.870;2022-11-15T05:23:53;10.07;;;5.97;;
46411;SDS011;32113;42.012;24.870;2022-11-15T05:26:18;9.02;;;6.07;;
46411;SDS011;32113;42.012;24.870;2022-11-15T05:28:44;10.00;;;7.28;;
46411;SDS011;32113;42.012;24.870;2022-11-15T05:31:13;12.00;;;6.43;;
46411;SDS011;32113;42.012;24.870;2022-11-15T05:33:40;9.43;;;6.47;;
46411;SDS011;32113;42.012;24.870;2022-11-15T05:38:43;8.95;;;6.05;;
46411;SDS011;32113;42.012;24.870;2022-11-15T05:41:09;8.90;;;6.20;;
46411;SDS011;32113;42.012;24.870;2022-11-15T05:43:35;8.95;;;5.85;;
46411;SDS011;32113;42.012;24.870;2022-11-15T05:46:02;10.27;;;6.43;;
46411;SDS011;32113;42.012;24.870;2022-11-15T05:48:29;8.20;;;5.78;;
46411;SDS011;32113;42.012;24.870;2022-11-15T05:50:55;11.23;;;6.85;;
46411;SDS011;32113;42.012;24.870;2022-11-15T05:53:21;10.45;;;6.00;;
46411;SDS011;32113;42.012;24.870;2022-11-15T05:55:49;10.60;;;6.28;;
46411;SDS011;32113;42.012;24.870;2022-11-15T05:58:15;8.35;;;5.78;;
46411;SDS011;32113;42.012;24.870;2022-11-15T06:00:41;8.98;;;6.63;;
46411;SDS011;32113;42.012;24.870;2022-11-15T06:03:08;9.40;;;6.32;;
46411;SDS011;32113;42.012;24.870;2022-11-15T06:05:33;10.05;;;6.07;;
46411;SDS011;32113;42.012;24.870;2022-11-15T06:07:59;8.55;;;6.15;;
46411;SDS011;32113;42.012;24.870;2022-11-15T06:10:25;9.85;;;6.55;;
46411;SDS011;32113;42.012;24.870;2022-11-15T06:13:00;12.98;;;5.80;;
46411;SDS011;32113;42.012;24.870;2022-11-15T06:15:26;9.65;;;6.75;;
46411;SDS011;32113;42.012;24.870;2022-11-15T06:17:52;10.90;;;6.25;;
46411;SDS011;32113;42.012;24.870;2022-11-15T06:20:22;9.93;;;7.07;;
46411;SDS011;32113;42.012;24.870;2022-11-15T06:22:48;10.93;;;6.47;;
46411;SDS011;32113;42.012;24.870;2022-11-15T06:25:13;13.32;;;6.25;;
46411;SDS011;32113;42.012;24.870;2022-11-15T06:27:39;8.75;;;5.75;;
46411;SDS011;32113;42.012;24.870;2022-11-15T06:30:04;7.88;;;5.65;;
46411;SDS011;32113;42.012;24.870;2022-11-15T06:32:30;11.40;;;6.25;;
46411;SDS011;32113;42.012;24.870;2022-11-15T06:34:56;9.40;;;6.55;;
46411;SDS011;32113;42.012;24.870;2022-11-15T06:37:21;10.75;;;5.55;;
46411;SDS011;32113;42.012;24.870;2022-11-15T06:39:47;10.43;;;6.47;;
46411;SDS011;32113;42.012;24.870;2022-11-15T06:42:12;11.70;;;6.38;;
46411;SDS011;32113;42.012;24.870;2022-11-15T06:44:37;12.93;;;7.43;;
46411;SDS011;32113;42.012;24.870;2022-11-15T06:47:03;12.98;;;6.95;;
46411;SDS011;32113;42.012;24.870;2022-11-15T06:49:28;12.75;;;6.78;;
46411;SDS011;32113;42.012;24.870;2022-11-15T06:51:54;8.50;;;6.35;;
46411;SDS011;32113;42.012;24.870;2022-11-15T06:54:19;8.30;;;6.13;;
46411;SDS011;32113;42.012;24.870;2022-11-15T06:56:45;9.15;;;5.78;;
46411;SDS011;32113;42.012;24.870;2022-11-15T06:59:11;6.72;;;5.05;;
46411;SDS011;32113;42.012;24.870;2022-11-15T07:01:36;8.90;;;5.68;;
46411;SDS011;32113;42.012;24.870;2022-11-15T07:04:02;10.18;;;5.72;;
46411;SDS011;32113;42.012;24.870;2022-11-15T07:06:27;8.52;;;5.63;;
46411;SDS011;32113;42.012;24.870;2022-11-15T07:08:52;6.78;;;5.20;;
46411;SDS011;32113;42.012;24.870;2022-11-15T07:11:18;11.60;;;5.38;;
46411;SDS011;32113;42.012;24.870;2022-11-15T07:13:43;12.23;;;5.85;;
46411;SDS011;32113;42.012;24.870;2022-11-15T07:16:09;13.35;;;5.88;;
46411;SDS011;32113;42.012;24.870;2022-11-15T07:18:37;9.63;;;5.20;;
46411;SDS011;32113;42.012;24.870;2022-11-15T07:21:04;10.82;;;5.38;;
46411;SDS011;32113;42.012;24.870;2022-11-15T07:23:30;10.15;;;6.10;;
46411;SDS011;32113;42.012;24.870;2022-11-15T07:25:57;8.73;;;6.32;;
46411;SDS011;32113;42.012;24.870;2022-11-15T07:28:23;10.50;;;6.22;;
46411;SDS011;32113;42.012;24.870;2022-11-15T07:30:49;10.35;;;6.60;;
46411;SDS011;32113;42.012;24.870;2022-11-15T07:33:14;12.20;;;6.82;;
46411;SDS011;32113;42.012;24.870;2022-11-15T07:35:40;13.63;;;6.75;;
46411;SDS011;32113;42.012;24.870;2022-11-15T07:38:05;10.82;;;7.25;;
46411;SDS011;32113;42.012;24.870;2022-11-15T07:40:31;8.80;;;5.60;;
46411;SDS011;32113;42.012;24.870;2022-11-15T07:43:03;10.50;;;5.03;;
46411;SDS011;32113;42.012;24.870;2022-11-15T07:45:30;8.95;;;5.68;;
46411;SDS011;32113;42.012;24.870;2022-11-15T07:47:58;9.20;;;5.80;;
46411;SDS011;32113;42.012;24.870;2022-11-15T07:50:24;10.75;;;6.32;;
46411;SDS011;32113;42.012;24.870;2022-11-15T07:52:53;9.55;;;5.50;;
46411;SDS011;32113;42.012;24.870;2022-11-15T07:55:20;9.80;;;5.35;;
46411;SDS011;32113;42.012;24.870;2022-11-15T07:57:46;6.63;;;4.85;;
46411;SDS011;32113;42.012;24.870;2022-11-15T08:00:11;7.22;;;5.05;;
46411;SDS011;32113;42.012;24.870;2022-11-15T08:02:37;8.00;;;4.55;;
46411;SDS011;32113;42.012;24.870;2022-11-15T08:05:03;7.95;;;4.85;;
46411;SDS011;32113;42.012;24.870;2022-11-15T08:07:29;9.18;;;5.28;;
46411;SDS011;32113;42.012;24.870;2022-11-15T08:09:55;6.65;;;4.53;;
46411;SDS011;32113;42.012;24.870;2022-11-15T08:12:21;7.35;;;5.53;;
46411;SDS011;32113;42.012;24.870;2022-11-15T08:14:46;11.27;;;6.07;;
46411;SDS011;32113;42.012;24.870;2022-11-15T08:17:12;9.55;;;5.50;;
46411;SDS011;32113;42.012;24.870;2022-11-15T08:19:37;9.90;;;7.28;;
46411;SDS011;32113;42.012;24.870;2022-11-15T08:22:02;8.57;;;6.38;;
46411;SDS011;32113;42.012;24.870;2022-11-15T08:24:28;11.98;;;7.00;;
46411;SDS011;32113;42.012;24.870;2022-11-15T08:26:53;11.65;;;7.15;;
46411;SDS011;32113;42.012;24.870;2022-11-15T08:29:19;10.57;;;7.65;;
46411;SDS011;32113;42.012;24.870;2022-11-15T08:31:44;12.32;;;8.43;;
46411;SDS011;32113;42.012;24.870;2022-11-15T08:34:10;14.40;;;10.77;;
46411;SDS011;32113;42.012;24.870;2022-11-15T08:36:35;16.00;;;11.18;;
46411;SDS011;32113;42.012;24.870;2022-11-15T08:39:01;18.02;;;11.07;;
46411;SDS011;32113;42.012;24.870;2022-11-15T08:41:31;26.60;;;12.90;;
46411;SDS011;32113;42.012;24.870;2022-11-15T08:43:58;23.08;;;11.90;;
46411;SDS011;32113;42.012;24.870;2022-11-15T08:46:23;20.52;;;12.75;;
46411;SDS011;32113;42.012;24.870;2022-11-15T08:48:49;21.10;;;14.85;;
46411;SDS011;32113;42.012;24.870;2022-11-15T08:51:14;18.35;;;14.63;;
46411;SDS011;32113;42.012;24.870;2022-11-15T08:53:40;26.35;;;15.57;;
46411;SDS011;32113;42.012;24.870;2022-11-15T08:56:09;20.27;;;15.13;;
46411;SDS011;32113;42.012;24.870;2022-11-15T08:58:36;24.15;;;18.50;;
46411;SDS011;32113;42.012;24.870;2022-11-15T09:01:02;25.10;;;18.20;;
46411;SDS011;32113;42.012;24.870;2022-11-15T09:03:29;24.73;;;18.00;;
46411;SDS011;32113;42.012;24.870;2022-11-15T09:05:55;26.40;;;18.88;;
46411;SDS011;32113;42.012;24.870;2022-11-15T09:08:21;24.98;;;18.67;;
46411;SDS011;32113;42.012;24.870;2022-11-15T09:10:46;26.92;;;18.23;;
46411;SDS011;32113;42.012;24.870;2022-11-15T09:13:12;29.23;;;19.83;;
46411;SDS011;32113;42.012;24.870;2022-11-15T09:15:38;33.45;;;25.55;;
46411;SDS011;32113;42.012;24.870;2022-11-15T09:18:04;45.03;;;35.42;;
46411;SDS011;32113;42.012;24.870;2022-11-15T09:20:29;43.75;;;29.75;;
46411;SDS011;32113;42.012;24.870;2022-11-15T09:22:57;45.92;;;28.25;;
46411;SDS011;32113;42.012;24.870;2022-11-15T09:25:24;40.88;;;28.80;;
46411;SDS011;32113;42.012;24.870;2022-11-15T09:27:50;35.47;;;28.85;;
46411;SDS011;32113;42.012;24.870;2022-11-15T09:30:15;36.33;;;28.17;;
46411;SDS011;32113;42.012;24.870;2022-11-15T09:32:41;37.67;;;27.52;;
46411;SDS011;32113;42.012;24.870;2022-11-15T09:35:06;34.28;;;27.10;;
46411;SDS011;32113;42.012;24.870;2022-11-15T09:37:32;35.97;;;26.75;;
46411;SDS011;32113;42.012;24.870;2022-11-15T09:39:58;39.17;;;26.80;;
46411;SDS011;32113;42.012;24.870;2022-11-15T09:42:37;43.58;;;27.67;;
46411;SDS011;32113;42.012;24.870;2022-11-15T09:50:49;34.20;;;25.48;;
46411;SDS011;32113;42.012;24.870;2022-11-15T09:53:22;41.83;;;30.50;;
46411;SDS011;32113;42.012;24.870;2022-11-15T09:56:18;36.95;;;27.15;;
46411;SDS011;32113;42.012;24.870;2022-11-15T10:04:29;38.67;;;29.17;;
46411;SDS011;32113;42.012;24.870;2022-11-15T10:09:56;37.58;;;30.67;;
46411;SDS011;32113;42.012;24.870;2022-11-15T10:12:39;35.38;;;28.88;;
46411;SDS011;32113;42.012;24.870;2022-11-15T10:15:11;36.80;;;27.67;;
46411;SDS011;32113;42.012;24.870;2022-11-15T10:20:44;38.40;;;29.25;;
46411;SDS011;32113;42.012;24.870;2022-11-15T10:23:14;39.05;;;30.58;;
46411;SDS011;32113;42.012;24.870;2022-11-15T10:25:43;40.45;;;29.85;;
46411;SDS011;32113;42.012;24.870;2022-11-15T10:28:28;41.03;;;30.65;;
46411;SDS011;32113;42.012;24.870;2022-11-15T10:30:55;42.10;;;31.25;;
46411;SDS011;32113;42.012;24.870;2022-11-15T10:33:27;44.13;;;30.95;;
46411;SDS011;32113;42.012;24.870;2022-11-15T10:38:47;39.70;;;31.67;;
46411;SDS011;32113;42.012;24.870;2022-11-15T10:41:20;40.72;;;32.72;;
46411;SDS011;32113;42.012;24.870;2022-11-15T10:46:32;47.95;;;33.75;;
46411;SDS011;32113;42.012;24.870;2022-11-15T10:49:21;43.55;;;30.85;;
46411;SDS011;32113;42.012;24.870;2022-11-15T10:51:56;45.80;;;32.55;;
46411;SDS011;32113;42.012;24.870;2022-11-15T10:54:45;45.30;;;35.17;;
46411;SDS011;32113;42.012;24.870;2022-11-15T10:57:47;43.28;;;33.90;;
46411;SDS011;32113;42.012;24.870;2022-11-15T11:06:03;39.72;;;30.88;;
46411;SDS011;32113;42.012;24.870;2022-11-15T11:08:30;47.35;;;30.42;;
46411;SDS011;32113;42.012;24.870;2022-11-15T11:11:00;41.28;;;31.10;;
46411;SDS011;32113;42.012;24.870;2022-11-15T11:13:27;38.55;;;30.20;;
46411;SDS011;32113;42.012;24.870;2022-11-15T11:21:40;36.45;;;29.33;;
46411;SDS011;32113;42.012;24.870;2022-11-15T11:24:36;38.15;;;28.98;;
46411;SDS011;32113;42.012;24.870;2022-11-15T11:30:17;37.10;;;28.90;;
46411;SDS011;32113;42.012;24.870;2022-11-15T11:48:56;34.78;;;27.98;;
46411;SDS011;32113;42.012;24.870;2022-11-15T11:51:39;44.75;;;29.77;;
46411;SDS011;32113;42.012;24.870;2022-11-15T11:56:44;36.78;;;28.25;;
46411;SDS011;32113;42.012;24.870;2022-11-15T12:02:18;45.15;;;27.88;;
46411;SDS011;32113;42.012;24.870;2022-11-15T12:04:54;37.92;;;28.35;;
46411;SDS011;32113;42.012;24.870;2022-11-15T12:07:29;32.50;;;26.73;;
46411;SDS011;32113;42.012;24.870;2022-11-15T12:10:01;36.17;;;27.88;;
46411;SDS011;32113;42.012;24.870;2022-11-15T12:15:48;37.83;;;27.83;;
46411;SDS011;32113;42.012;24.870;2022-11-15T12:18:17;37.30;;;25.98;;
46411;SDS011;32113;42.012;24.870;2022-11-15T12:20:58;44.65;;;28.25;;
46411;SDS011;32113;42.012;24.870;2022-11-15T12:23:29;39.60;;;28.65;;
46411;SDS011;32113;42.012;24.870;2022-11-15T12:26:03;42.72;;;28.77;;
46411;SDS011;32113;42.012;24.870;2022-11-15T12:31:01;39.45;;;29.23;;
46411;SDS011;32113;42.012;24.870;2022-11-15T12:33:36;55.70;;;27.17;;
46411;SDS011;32113;42.012;24.870;2022-11-15T12:36:08;40.63;;;26.52;;
46411;SDS011;32113;42.012;24.870;2022-11-15T12:41:31;33.40;;;26.38;;
46411;SDS011;32113;42.012;24.870;2022-11-15T12:44:00;34.25;;;27.00;;
46411;SDS011;32113;42.012;24.870;2022-11-15T12:49:09;34.85;;;26.23;;
46411;SDS011;32113;42.012;24.870;2022-11-15T13:02:18;34.92;;;27.40;;
46411;SDS011;32113;42.012;24.870;2022-11-15T13:04:50;33.95;;;26.63;;
46411;SDS011;32113;42.012;24.870;2022-11-15T13:10:00;32.50;;;26.02;;
46411;SDS011;32113;42.012;24.870;2022-11-15T13:17:40;36.08;;;27.98;;
46411;SDS011;32113;42.012;24.870;2022-11-15T13:22:49;38.45;;;26.83;;
46411;SDS011;32113;42.012;24.870;2022-11-15T13:36:39;45.95;;;30.08;;
46411;SDS011;32113;42.012;24.870;2022-11-15T13:39:23;44.45;;;31.63;;
46411;SDS011;32113;42.012;24.870;2022-11-15T13:41:52;39.38;;;32.05;;
46411;SDS011;32113;42.012;24.870;2022-11-15T13:44:21;36.30;;;29.15;;
46411;SDS011;32113;42.012;24.870;2022-11-15T13:47:00;38.53;;;29.13;;
46411;SDS011;32113;42.012;24.870;2022-11-15T13:49:33;43.33;;;30.42;;
46411;SDS011;32113;42.012;24.870;2022-11-15T13:52:03;42.67;;;30.42;;
46411;SDS011;32113;42.012;24.870;2022-11-15T13:54:41;41.72;;;31.63;;
46411;SDS011;32113;42.012;24.870;2022-11-15T13:57:26;44.17;;;32.97;;
46411;SDS011;32113;42.012;24.870;2022-11-15T14:02:50;44.67;;;34.08;;
46411;SDS011;32113;42.012;24.870;2022-11-15T14:05:17;45.53;;;34.67;;
46411;SDS011;32113;42.012;24.870;2022-11-15T14:10:41;50.42;;;36.47;;
46411;SDS011;32113;42.012;24.870;2022-11-15T14:13:10;49.08;;;35.15;;
46411;SDS011;32113;42.012;24.870;2022-11-15T14:15:52;41.55;;;32.70;;
46411;SDS011;32113;42.012;24.870;2022-11-15T14:21:12;46.22;;;32.47;;
46411;SDS011;32113;42.012;24.870;2022-11-15T14:23:38;48.63;;;35.20;;
46411;SDS011;32113;42.012;24.870;2022-11-15T14:26:04;61.67;;;45.20;;
46411;SDS011;32113;42.012;24.870;2022-11-15T14:28:30;56.65;;;44.38;;
46411;SDS011;32113;42.012;24.870;2022-11-15T14:30:58;54.53;;;36.15;;
46411;SDS011;32113;42.012;24.870;2022-11-15T14:38:38;46.60;;;35.00;;
46411;SDS011;32113;42.012;24.870;2022-11-15T14:41:04;51.05;;;36.00;;
46411;SDS011;32113;42.012;24.870;2022-11-15T14:43:30;50.63;;;35.90;;
46411;SDS011;32113;42.012;24.870;2022-11-15T14:45:56;51.38;;;34.70;;
46411;SDS011;32113;42.012;24.870;2022-11-15T14:48:22;53.47;;;35.00;;
46411;SDS011;32113;42.012;24.870;2022-11-15T14:50:47;52.92;;;36.58;;
46411;SDS011;32113;42.012;24.870;2022-11-15T14:53:14;47.03;;;34.28;;
46411;SDS011;32113;42.012;24.870;2022-11-15T14:58:07;51.60;;;34.53;;
46411;SDS011;32113;42.012;24.870;2022-11-15T15:00:33;52.33;;;36.08;;
46411;SDS011;32113;42.012;24.870;2022-11-15T15:03:00;51.40;;;37.38;;
46411;SDS011;32113;42.012;24.870;2022-11-15T15:05:34;56.13;;;36.88;;
46411;SDS011;32113;42.012;24.870;2022-11-15T15:10:31;52.65;;;36.53;;
46411;SDS011;32113;42.012;24.870;2022-11-15T15:13:01;50.55;;;35.67;;
46411;SDS011;32113;42.012;24.870;2022-11-15T15:15:35;58.83;;;39.72;;
46411;SDS011;32113;42.012;24.870;2022-11-15T15:18:02;54.80;;;39.50;;
46411;SDS011;32113;42.012;24.870;2022-11-15T15:20:29;61.13;;;40.80;;
46411;SDS011;32113;42.012;24.870;2022-11-15T15:22:55;66.93;;;43.50;;
46411;SDS011;32113;42.012;24.870;2022-11-15T15:25:26;62.33;;;42.03;;
46411;SDS011;32113;42.012;24.870;2022-11-15T15:27:53;55.92;;;41.20;;
46411;SDS011;32113;42.012;24.870;2022-11-15T15:30:20;59.72;;;40.08;;
46411;SDS011;32113;42.012;24.870;2022-11-15T15:32:46;56.53;;;40.55;;
46411;SDS011;32113;42.012;24.870;2022-11-15T15:35:12;62.22;;;41.33;;
46411;SDS011;32113;42.012;24.870;2022-11-15T15:37:39;62.63;;;43.80;;
46411;SDS011;32113;42.012;24.870;2022-11-15T15:40:16;70.78;;;49.10;;
46411;SDS011;32113;42.012;24.870;2022-11-15T15:42:43;67.07;;;46.47;;
46411;SDS011;32113;42.012;24.870;2022-11-15T15:45:08;71.35;;;49.17;;
46411;SDS011;32113;42.012;24.870;2022-11-15T15:47:34;66.22;;;47.92;;
46411;SDS011;32113;42.012;24.870;2022-11-15T15:50:00;62.83;;;47.67;;
46411;SDS011;32113;42.012;24.870;2022-11-15T15:52:25;63.40;;;46.38;;
46411;SDS011;32113;42.012;24.870;2022-11-15T15:54:51;65.72;;;48.72;;
46411;SDS011;32113;42.012;24.870;2022-11-15T15:57:16;68.93;;;52.63;;
46411;SDS011;32113;42.012;24.870;2022-11-15T15:59:41;68.20;;;48.35;;
46411;SDS011;32113;42.012;24.870;2022-11-15T16:02:13;64.55;;;47.67;;
46411;SDS011;32113;42.012;24.870;2022-11-15T16:04:39;69.05;;;46.75;;
46411;SDS011;32113;42.012;24.870;2022-11-15T16:07:04;61.00;;;44.47;;
46411;SDS011;32113;42.012;24.870;2022-11-15T16:09:30;56.17;;;42.85;;
46411;SDS011;32113;42.012;24.870;2022-11-15T16:12:14;55.58;;;41.38;;
46411;SDS011;32113;42.012;24.870;2022-11-15T16:14:41;59.80;;;43.47;;
46411;SDS011;32113;42.012;24.870;2022-11-15T16:17:09;60.05;;;44.97;;
46411;SDS011;32113;42.012;24.870;2022-11-15T16:19:41;66.53;;;47.17;;
46411;SDS011;32113;42.012;24.870;2022-11-15T16:22:07;84.53;;;54.67;;
46411;SDS011;32113;42.012;24.870;2022-11-15T16:24:32;71.65;;;46.03;;
46411;SDS011;32113;42.012;24.870;2022-11-15T16:26:57;66.07;;;44.58;;
46411;SDS011;32113;42.012;24.870;2022-11-15T16:29:23;60.08;;;40.47;;
46411;SDS011;32113;42.012;24.870;2022-11-15T16:31:48;74.70;;;48.55;;
46411;SDS011;32113;42.012;24.870;2022-11-15T16:34:14;60.00;;;39.20;;
46411;SDS011;32113;42.012;24.870;2022-11-15T16:36:39;60.38;;;39.95;;
46411;SDS011;32113;42.012;24.870;2022-11-15T16:39:04;61.35;;;39.05;;
46411;SDS011;32113;42.012;24.870;2022-11-15T16:41:30;60.72;;;42.03;;
46411;SDS011;32113;42.012;24.870;2022-11-15T16:43:56;53.78;;;37.05;;
46411;SDS011;32113;42.012;24.870;2022-11-15T16:46:22;47.72;;;33.53;;
46411;SDS011;32113;42.012;24.870;2022-11-15T16:48:49;48.38;;;34.20;;
46411;SDS011;32113;42.012;24.870;2022-11-15T16:51:16;47.17;;;34.85;;
46411;SDS011;32113;42.012;24.870;2022-11-15T16:53:42;50.20;;;34.85;;
46411;SDS011;32113;42.012;24.870;2022-11-15T16:56:18;48.05;;;35.33;;
46411;SDS011;32113;42.012;24.870;2022-11-15T16:58:48;48.20;;;34.10;;
46411;SDS011;32113;42.012;24.870;2022-11-15T17:01:17;45.45;;;32.50;;
46411;SDS011;32113;42.012;24.870;2022-11-15T17:03:46;70.93;;;48.42;;
46411;SDS011;32113;42.012;24.870;2022-11-15T17:06:12;64.50;;;45.28;;
46411;SDS011;32113;42.012;24.870;2022-11-15T17:08:38;46.75;;;34.28;;